createdAt,value
2023-03-24T00:02:25.863Z,98192.28
2023-03-24T00:04:58.968Z,98174.34
2023-03-24T00:07:30.882Z,98186.63
2023-03-24T00:09:59.550Z,98189.03
2023-03-24T00:12:28.221Z,98196.59
2023-03-24T00:14:57.125Z,98192.22
2023-03-24T00:17:29.407Z,98217.78
2023-03-24T00:19:58.231Z,98214.81
2023-03-24T00:22:28.405Z,98213.88
2023-03-24T00:24:57.196Z,98208.44
2023-03-24T00:27:26.180Z,98209.88
2023-03-24T00:29:54.688Z,98220.75
2023-03-24T00:32:24.319Z,98219.94
2023-03-24T00:34:54.729Z,98213.53
2023-03-24T00:37:24.417Z,98212.25
2023-03-24T00:39:53.024Z,98213.53
2023-03-24T00:42:22.544Z,98226.97
2023-03-24T00:44:51.336Z,98224.34
2023-03-24T00:47:26.164Z,98214.31
2023-03-24T00:49:58.270Z,98204.28
2023-03-24T00:52:34.161Z,98211.34
2023-03-24T00:55:05.755Z,98213.91
2023-03-24T00:57:35.668Z,98211.00
2023-03-24T01:00:14.679Z,98197.88
2023-03-24T01:02:43.928Z,98215.44
2023-03-24T01:05:18.118Z,98218.72
2023-03-24T01:07:52.515Z,98215.31
2023-03-24T01:10:26.862Z,98214.69
2023-03-24T01:12:58.524Z,98221.25
2023-03-24T01:15:30.208Z,98216.97
2023-03-24T01:18:02.584Z,98234.41
2023-03-24T01:20:35.873Z,98225.72
2023-03-24T01:23:06.514Z,98225.19
2023-03-24T01:25:37.951Z,98225.56
2023-03-24T01:28:07.547Z,98220.63
2023-03-24T01:30:36.595Z,98229.44
2023-03-24T01:33:06.320Z,98222.50
2023-03-24T01:35:37.486Z,98232.09
2023-03-24T01:38:09.190Z,98245.72
2023-03-24T01:40:41.947Z,98245.41
2023-03-24T01:43:20.406Z,98239.38
2023-03-24T01:46:18.122Z,98232.00
2023-03-24T01:48:52.621Z,98235.84
2023-03-24T01:51:26.461Z,98223.06
2023-03-24T01:53:57.893Z,98236.66
2023-03-24T01:56:27.713Z,98247.34
2023-03-24T01:59:00.528Z,98267.06
2023-03-24T02:01:32.277Z,98250.16
2023-03-24T02:04:04.680Z,98252.28
2023-03-24T02:06:44.298Z,98244.41
2023-03-24T02:09:15.648Z,98243.59
2023-03-24T02:11:46.534Z,98258.66
2023-03-24T02:14:15.802Z,98240.59
2023-03-24T02:16:59.404Z,98232.72
2023-03-24T02:19:57.598Z,98234.16
2023-03-24T02:23:02.084Z,98264.19
2023-03-24T02:25:56.191Z,98286.56
2023-03-24T02:28:38.659Z,98249.63
2023-03-24T02:31:52.702Z,98245.66
2023-03-24T02:34:57.408Z,98229.72
2023-03-24T02:37:49.333Z,98245.13
2023-03-24T02:40:35.661Z,98243.50
2023-03-24T02:43:25.182Z,98240.22
2023-03-24T02:46:13.858Z,98240.88
2023-03-24T02:48:56.513Z,98240.53
2023-03-24T02:51:31.940Z,98255.47
2023-03-24T02:54:09.790Z,98245.31
2023-03-24T02:56:44.785Z,98257.63
2023-03-24T02:59:19.973Z,98235.78
2023-03-24T03:01:57.909Z,98240.69
2023-03-24T03:04:33.288Z,98236.41
2023-03-24T03:07:10.363Z,98251.31
2023-03-24T03:09:43.019Z,98255.47
2023-03-24T03:12:15.887Z,98237.22
2023-03-24T03:14:49.033Z,98241.66
2023-03-24T03:17:21.149Z,98242.13
2023-03-24T03:19:56.372Z,98245.38
2023-03-24T03:22:31.063Z,98249.28
2023-03-24T03:25:03.892Z,98258.78
2023-03-24T03:27:39.324Z,98254.22
2023-03-24T03:30:13.900Z,98248.97
2023-03-24T03:32:46.721Z,98237.78
2023-03-24T03:35:22.821Z,98240.13
2023-03-24T03:37:58.867Z,98229.00
2023-03-24T03:40:34.689Z,98230.97
2023-03-24T03:43:05.973Z,98232.94
2023-03-24T03:45:35.116Z,98252.97
2023-03-24T03:48:03.912Z,98232.53
2023-03-24T03:50:33.946Z,98224.34
2023-03-24T03:53:03.776Z,98227.78
2023-03-24T03:55:32.811Z,98234.50
2023-03-24T03:58:01.763Z,98236.44
2023-03-24T04:00:32.183Z,98234.50
2023-03-24T04:03:19.364Z,98241.56
2023-03-24T04:05:58.019Z,98235.38
2023-03-24T04:08:33.790Z,98227.16
2023-03-24T04:11:26.041Z,98219.66
2023-03-24T04:14:11.132Z,98225.06
2023-03-24T04:16:55.146Z,98215.03
2023-03-24T04:19:38.930Z,98222.09
2023-03-24T04:22:24.365Z,98237.56
2023-03-24T04:24:57.187Z,98223.13
2023-03-24T04:27:38.566Z,98230.81
2023-03-24T04:30:17.011Z,98217.66
2023-03-24T04:32:58.697Z,98230.06
2023-03-24T04:35:33.122Z,98219.22
2023-03-24T04:38:05.443Z,98219.69
2023-03-24T04:40:42.036Z,98227.06
2023-03-24T04:43:15.154Z,98226.56
2023-03-24T04:45:44.029Z,98228.66
2023-03-24T04:48:16.263Z,98228.19
2023-03-24T04:50:53.047Z,98234.13
2023-03-24T04:53:22.815Z,98233.44
2023-03-24T04:56:19.749Z,98221.16
2023-03-24T04:58:51.049Z,98223.91
2023-03-24T05:01:21.727Z,98243.28
2023-03-24T05:03:52.157Z,98232.63
2023-03-24T05:06:20.639Z,98231.09
2023-03-24T05:08:49.262Z,98214.25
2023-03-24T05:11:18.142Z,98251.34
2023-03-24T05:13:47.430Z,98243.63
2023-03-24T05:16:17.159Z,98250.38
2023-03-24T05:18:45.737Z,98238.22
2023-03-24T05:21:15.515Z,98232.47
2023-03-24T05:23:43.931Z,98238.03
2023-03-24T05:26:12.448Z,98250.38
2023-03-24T05:28:41.078Z,98249.38
2023-03-24T05:31:09.528Z,98254.78
2023-03-24T05:33:38.486Z,98247.56
2023-03-24T05:36:07.405Z,98259.41
2023-03-24T05:38:37.630Z,98262.50
2023-03-24T05:41:07.641Z,98264.13
2023-03-24T05:43:36.304Z,98267.25
2023-03-24T05:46:04.744Z,98264.13
2023-03-24T05:48:33.311Z,98267.75
2023-03-24T05:51:02.081Z,98261.38
2023-03-24T05:53:31.246Z,98270.22
2023-03-24T05:56:01.381Z,98263.44
2023-03-24T05:58:29.983Z,98275.94
2023-03-24T06:01:00.130Z,98291.69
2023-03-24T06:03:34.937Z,98280.72
2023-03-24T06:06:03.906Z,98290.28
2023-03-24T06:08:34.107Z,98283.03
2023-03-24T06:11:05.724Z,98276.19
2023-03-24T06:13:34.462Z,98263.19
2023-03-24T06:16:03.915Z,98266.84
2023-03-24T06:18:33.835Z,98282.91
2023-03-24T06:21:02.529Z,98276.19
2023-03-24T06:23:31.111Z,98280.09
2023-03-24T06:26:01.836Z,98279.25
2023-03-24T06:28:34.848Z,98275.63
2023-03-24T06:31:06.960Z,98282.50
2023-03-24T06:33:35.459Z,98275.44
2023-03-24T06:36:04.506Z,98281.78
2023-03-24T06:38:33.947Z,98283.47
2023-03-24T06:41:03.299Z,98300.22
2023-03-24T06:43:33.825Z,98292.69
2023-03-24T06:46:02.748Z,98295.19
2023-03-24T06:48:31.466Z,98299.63
2023-03-24T06:51:00.191Z,98294.03
2023-03-24T06:53:28.944Z,98309.34
2023-03-24T06:55:57.573Z,98305.75
2023-03-24T06:58:27.112Z,98314.44
2023-03-24T07:00:57.722Z,98312.03
2023-03-24T07:03:26.773Z,98319.09
2023-03-24T07:05:55.788Z,98324.88
2023-03-24T07:08:37.551Z,98323.22
2023-03-24T07:11:10.050Z,98322.59
2023-03-24T07:13:39.407Z,98324.25
2023-03-24T07:16:10.269Z,98330.81
2023-03-24T07:18:38.950Z,98319.94
2023-03-24T07:21:08.675Z,98330.28
2023-03-24T07:23:37.580Z,98318.16
2023-03-24T07:26:07.799Z,98320.66
2023-03-24T07:28:36.181Z,98323.31
2023-03-24T07:31:07.016Z,98325.94
2023-03-24T07:33:38.861Z,98324.63
2023-03-24T07:36:08.420Z,98315.44
2023-03-24T07:38:36.881Z,98315.41
2023-03-24T07:41:05.200Z,98330.38
2023-03-24T07:43:35.584Z,98328.41
2023-03-24T07:46:04.340Z,98318.72
2023-03-24T07:48:32.804Z,98321.84
2023-03-24T07:51:03.612Z,98327.16
2023-03-24T07:53:32.830Z,98324.69
2023-03-24T07:56:02.229Z,98331.63
2023-03-24T07:58:30.668Z,98333.78
2023-03-24T08:00:59.098Z,98328.34
2023-03-24T08:03:30.534Z,98333.94
2023-03-24T08:06:04.550Z,98332.00
2023-03-24T08:08:36.605Z,98331.50
2023-03-24T08:11:05.735Z,98337.75
2023-03-24T08:13:35.328Z,98327.22
2023-03-24T08:16:04.178Z,98328.03
2023-03-24T08:18:35.274Z,98318.50
2023-03-24T08:21:03.625Z,98316.88
2023-03-24T08:23:32.180Z,98305.53
2023-03-24T08:26:03.329Z,98315.88
2023-03-24T08:28:31.843Z,98326.56
2023-03-24T08:31:01.484Z,98309.63
2023-03-24T08:33:30.226Z,98313.91
2023-03-24T08:35:58.895Z,98296.47
2023-03-24T08:38:30.949Z,98305.34
2023-03-24T08:41:02.380Z,98306.00
2023-03-24T08:43:32.448Z,98313.75
2023-03-24T08:46:02.718Z,98315.72
2023-03-24T08:48:33.235Z,98305.03
2023-03-24T08:51:01.708Z,98296.75
2023-03-24T08:53:30.324Z,98301.84
2023-03-24T08:55:58.812Z,98308.94
2023-03-24T08:58:27.390Z,98295.63
2023-03-24T09:00:57.519Z,98305.28
2023-03-24T09:03:26.626Z,98300.19
2023-03-24T09:05:58.810Z,98294.00
2023-03-24T09:08:27.711Z,98309.97
2023-03-24T09:10:56.323Z,98306.81
2023-03-24T09:13:25.339Z,98295.66
2023-03-24T09:16:00.201Z,98296.84
2023-03-24T09:18:29.247Z,98307.47
2023-03-24T09:20:57.730Z,98285.81
2023-03-24T09:23:26.184Z,98289.00
2023-03-24T09:25:55.103Z,98285.53
2023-03-24T09:28:24.351Z,98282.25
2023-03-24T09:30:57.696Z,98310.19
2023-03-24T09:33:27.851Z,98286.00
2023-03-24T09:35:59.291Z,98280.81
2023-03-24T09:38:29.922Z,98294.53
2023-03-24T09:41:03.201Z,98285.03
2023-03-24T09:43:39.784Z,98279.66
2023-03-24T09:46:16.240Z,98267.84
2023-03-24T09:48:51.637Z,98287.47
2023-03-24T09:51:24.160Z,98259.41
2023-03-24T09:54:02.294Z,98256.59
2023-03-24T09:56:31.932Z,98243.84
2023-03-24T09:59:06.927Z,98254.69
2023-03-24T10:01:36.799Z,98235.91
2023-03-24T10:04:15.479Z,98239.91
2023-03-24T10:06:44.789Z,98239.91
2023-03-24T10:09:35.360Z,98227.25
2023-03-24T10:12:18.050Z,98255.09
2023-03-24T10:14:57.731Z,98279.97
2023-03-24T10:17:38.494Z,98241.56
2023-03-24T10:20:17.493Z,98238.28
2023-03-24T10:22:58.325Z,98239.81
2023-03-24T10:25:34.763Z,98227.84
2023-03-24T10:28:13.200Z,98223.69
2023-03-24T10:30:46.200Z,98234.94
2023-03-24T10:33:16.622Z,98213.59
2023-03-24T10:35:56.740Z,98214.31
2023-03-24T10:38:25.657Z,98211.78
2023-03-24T10:40:56.346Z,98218.47
2023-03-24T10:43:25.567Z,98214.59
2023-03-24T10:45:56.764Z,98209.69
2023-03-24T10:48:45.494Z,98191.91
2023-03-24T10:51:18.933Z,98194.19
2023-03-24T10:53:49.415Z,98199.69
2023-03-24T10:56:20.186Z,98164.41
2023-03-24T10:58:49.940Z,98191.72
2023-03-24T11:01:28.098Z,98179.88
2023-03-24T11:04:01.404Z,98165.63
2023-03-24T11:06:32.133Z,98163.41
2023-03-24T11:09:21.899Z,98155.09
2023-03-24T11:11:53.046Z,98173.22
2023-03-24T11:14:26.588Z,98129.34
2023-03-24T11:17:03.786Z,98144.44
2023-03-24T11:19:34.760Z,98125.69
2023-03-24T11:22:09.267Z,98126.28
2023-03-24T11:24:39.198Z,98149.31
2023-03-24T11:27:08.411Z,98133.41
2023-03-24T11:29:41.373Z,98163.88
2023-03-24T11:32:15.108Z,98161.38
2023-03-24T11:34:49.312Z,98153.25
2023-03-24T11:37:22.094Z,98116.28
2023-03-24T11:40:17.039Z,98167.00
2023-03-24T11:42:46.597Z,98140.31
2023-03-24T11:45:25.413Z,98164.25
2023-03-24T11:47:59.319Z,98144.38
2023-03-24T11:50:31.186Z,98143.72
2023-03-24T11:53:07.799Z,98132.84
2023-03-24T11:55:39.923Z,98141.94
2023-03-24T11:58:19.296Z,98128.56
2023-03-24T12:00:53.057Z,98122.69
2023-03-24T12:04:03.405Z,98135.34
2023-03-24T12:06:45.276Z,98117.53
2023-03-24T12:09:27.916Z,98142.81
2023-03-24T12:12:28.377Z,98101.78
2023-03-24T12:15:27.292Z,98108.16
2023-03-24T12:18:10.275Z,98103.44
2023-03-24T12:20:46.221Z,98097.78
2023-03-24T12:23:30.839Z,98102.28
2023-03-24T12:26:14.747Z,98106.88
2023-03-24T12:29:00.140Z,98101.69
2023-03-24T12:31:52.321Z,98074.28
2023-03-24T12:34:39.550Z,98063.91
2023-03-24T12:37:15.711Z,98071.47
2023-03-24T12:39:52.997Z,98113.69
2023-03-24T12:42:27.328Z,98083.28
2023-03-24T12:45:18.465Z,98073.72
2023-03-24T12:48:07.175Z,98055.94
2023-03-24T12:50:48.640Z,98061.88
2023-03-24T12:53:30.444Z,98069.00
2023-03-24T12:56:04.722Z,98076.53
2023-03-24T12:58:43.391Z,98084.31
2023-03-24T13:01:20.409Z,98075.16
2023-03-24T13:03:51.728Z,98105.50
2023-03-24T13:06:26.449Z,98091.78
2023-03-24T13:09:08.093Z,98057.06
2023-03-24T13:11:45.901Z,98082.41
2023-03-24T13:14:23.265Z,98068.13
2023-03-24T13:16:54.756Z,98080.56
2023-03-24T13:19:26.271Z,98098.00
2023-03-24T13:21:57.723Z,98065.28
2023-03-24T13:24:27.741Z,98065.59
2023-03-24T13:27:06.728Z,98072.16
2023-03-24T13:30:06.789Z,98071.13
2023-03-24T13:32:39.916Z,98055.78
2023-03-24T13:35:18.845Z,98071.13
2023-03-24T13:37:52.482Z,98091.78
2023-03-24T13:40:24.849Z,98110.50
2023-03-24T13:42:58.017Z,98138.06
2023-03-24T13:45:37.907Z,98127.88
2023-03-24T13:48:22.205Z,98159.28
2023-03-24T13:50:57.436Z,98181.22
2023-03-24T13:53:35.585Z,98193.00
2023-03-24T13:56:06.227Z,98200.19
2023-03-24T13:59:09.923Z,98189.50
2023-03-24T14:01:42.338Z,98198.59
2023-03-24T14:04:47.487Z,98205.03
2023-03-24T14:07:46.779Z,98186.25
2023-03-24T14:10:50.021Z,98205.50
2023-03-24T14:13:24.520Z,98215.38
2023-03-24T14:15:54.256Z,98215.06
2023-03-24T14:18:44.331Z,98206.78
2023-03-24T14:21:13.371Z,98208.56
2023-03-24T14:23:44.118Z,98186.22
2023-03-24T14:26:16.489Z,98178.22
2023-03-24T14:28:46.882Z,98190.09
2023-03-24T14:31:25.903Z,98204.63
2023-03-24T14:34:11.112Z,98170.13
2023-03-24T14:36:42.401Z,98153.09
2023-03-24T14:39:26.622Z,98121.84
2023-03-24T14:41:59.046Z,98130.44
2023-03-24T14:45:02.296Z,98126.25
2023-03-24T14:47:34.090Z,98115.03
2023-03-24T14:50:14.679Z,98089.75
2023-03-24T14:52:48.482Z,98132.84
2023-03-24T14:55:19.962Z,98127.88
2023-03-24T14:57:53.428Z,98137.06
2023-03-24T15:00:26.264Z,98136.13
2023-03-24T15:02:59.221Z,98137.34
2023-03-24T15:05:32.755Z,98124.06
2023-03-24T15:08:15.880Z,98114.06
2023-03-24T15:10:51.459Z,98102.41
2023-03-24T15:13:37.093Z,98106.56
2023-03-24T15:16:10.079Z,98142.59
2023-03-24T15:18:59.743Z,98156.53
2023-03-24T15:21:35.625Z,98138.88
2023-03-24T15:24:25.006Z,98122.31
2023-03-24T15:26:55.931Z,98116.59
2023-03-24T15:29:26.063Z,98117.13
2023-03-24T15:31:54.405Z,98106.22
2023-03-24T15:34:28.674Z,98107.09
2023-03-24T15:37:02.327Z,98109.00
2023-03-24T15:39:35.119Z,98098.63
2023-03-24T15:42:07.153Z,98122.31
2023-03-24T15:44:40.083Z,98110.81
2023-03-24T15:47:17.240Z,98113.31
2023-03-24T15:49:51.422Z,98111.59
2023-03-24T15:52:31.357Z,98122.78
2023-03-24T15:55:02.850Z,98131.94
2023-03-24T15:57:40.911Z,98145.88
2023-03-24T16:00:16.587Z,98135.78
2023-03-24T16:02:48.840Z,98126.31
2023-03-24T16:05:22.752Z,98098.91
2023-03-24T16:08:04.373Z,98116.81
2023-03-24T16:10:40.065Z,98132.13
2023-03-24T16:13:16.942Z,98128.41
2023-03-24T16:15:48.326Z,98130.72
2023-03-24T16:18:24.276Z,98149.66
2023-03-24T16:20:52.995Z,98129.09
2023-03-24T16:23:26.252Z,98177.28
2023-03-24T16:25:55.231Z,98141.06
2023-03-24T16:28:25.390Z,98107.41
2023-03-24T16:30:59.957Z,98149.91
2023-03-24T16:33:30.708Z,98113.56
2023-03-24T16:35:59.206Z,98105.88
2023-03-24T16:38:29.362Z,98108.03
2023-03-24T16:40:59.023Z,98106.06
2023-03-24T16:43:30.046Z,98096.00
2023-03-24T16:45:58.816Z,98105.38
2023-03-24T16:48:28.563Z,98122.78
2023-03-24T16:50:58.381Z,98122.59
2023-03-24T16:53:26.876Z,98143.38
2023-03-24T16:55:57.131Z,98145.16
2023-03-24T16:58:25.732Z,98151.00
2023-03-24T17:00:56.514Z,98145.28
2023-03-24T17:03:30.171Z,98147.84
2023-03-24T17:06:00.214Z,98145.69
2023-03-24T17:08:28.831Z,98177.94
2023-03-24T17:10:59.005Z,98174.53
2023-03-24T17:13:27.608Z,98164.88
2023-03-24T17:15:56.562Z,98177.59
2023-03-24T17:18:25.271Z,98174.38
2023-03-24T17:20:54.108Z,98203.94
2023-03-24T17:23:22.715Z,98206.06
2023-03-24T17:25:51.180Z,98194.25
2023-03-24T17:28:21.518Z,98201.00
2023-03-24T17:30:50.262Z,98202.31
2023-03-24T17:33:19.262Z,98204.25
2023-03-24T17:35:48.872Z,98200.16
2023-03-24T17:38:18.109Z,98202.13
2023-03-24T17:40:47.523Z,98212.03
2023-03-24T17:43:16.479Z,98203.16
2023-03-24T17:45:48.179Z,98191.94
2023-03-24T17:48:16.646Z,98213.06
2023-03-24T17:50:45.073Z,98215.56
2023-03-24T17:53:14.586Z,98233.13
2023-03-24T17:55:44.201Z,98226.91
2023-03-24T17:58:12.603Z,98247.78
2023-03-24T18:00:43.824Z,98229.53
2023-03-24T18:03:21.827Z,98269.00
2023-03-24T18:05:51.391Z,98242.69
2023-03-24T18:08:19.774Z,98246.31
2023-03-24T18:10:48.612Z,98262.41
2023-03-24T18:13:17.319Z,98247.63
2023-03-24T18:15:48.326Z,98267.84
2023-03-24T18:18:18.261Z,98270.47
2023-03-24T18:20:47.110Z,98279.47
2023-03-24T18:23:16.276Z,98283.09
2023-03-24T18:25:44.830Z,98286.56
2023-03-24T18:28:13.734Z,98278.19
2023-03-24T18:30:43.260Z,98292.00
2023-03-24T18:33:16.442Z,98287.38
2023-03-24T18:35:51.208Z,98302.34
2023-03-24T18:38:22.738Z,98298.88
2023-03-24T18:40:59.464Z,98291.47
2023-03-24T18:43:30.592Z,98310.50
2023-03-24T18:45:59.192Z,98320.66
2023-03-24T18:48:28.651Z,98324.97
2023-03-24T18:50:59.235Z,98323.50
2023-03-24T18:53:27.700Z,98328.25
2023-03-24T18:55:56.281Z,98356.53
2023-03-24T18:58:25.029Z,98341.53
2023-03-24T19:00:56.249Z,98346.78
2023-03-24T19:03:25.683Z,98344.97
2023-03-24T19:05:54.439Z,98358.09
2023-03-24T19:08:27.980Z,98358.09
2023-03-24T19:10:56.805Z,98359.84
2023-03-24T19:13:25.165Z,98369.53
2023-03-24T19:15:55.706Z,98382.56
2023-03-24T19:18:25.215Z,98372.53
2023-03-24T19:20:57.710Z,98384.19
2023-03-24T19:23:28.549Z,98381.88
2023-03-24T19:25:57.445Z,98392.19
2023-03-24T19:28:29.492Z,98397.94
2023-03-24T19:30:57.948Z,98411.56
2023-03-24T19:33:27.015Z,98406.47
2023-03-24T19:35:55.664Z,98406.50
2023-03-24T19:38:24.873Z,98409.31
2023-03-24T19:40:55.392Z,98410.06
2023-03-24T19:43:24.773Z,98433.25
2023-03-24T19:45:54.647Z,98421.09
2023-03-24T19:48:24.165Z,98430.78
2023-03-24T19:50:54.568Z,98445.22
2023-03-24T19:53:30.427Z,98453.41
2023-03-24T19:56:01.447Z,98468.66
2023-03-24T19:58:29.977Z,98474.72
2023-03-24T20:00:58.508Z,98462.28
2023-03-24T20:03:29.274Z,98473.97
2023-03-24T20:05:58.040Z,98460.38
2023-03-24T20:08:26.637Z,98514.56
2023-03-24T20:10:55.287Z,98479.75
2023-03-24T20:13:26.085Z,98481.91
2023-03-24T20:15:54.718Z,98490.81
2023-03-24T20:18:23.277Z,98488.06
2023-03-24T20:20:51.951Z,98478.72
2023-03-24T20:23:20.754Z,98489.06
2023-03-24T20:25:49.982Z,98502.19
2023-03-24T20:28:19.419Z,98497.81
2023-03-24T20:30:49.162Z,98510.81
2023-03-24T20:33:17.745Z,98513.91
2023-03-24T20:35:46.246Z,98538.56
2023-03-24T20:38:14.625Z,98530.00
2023-03-24T20:40:43.065Z,98514.59
2023-03-24T20:43:11.589Z,98536.59
2023-03-24T20:45:40.146Z,98543.81
2023-03-24T20:48:12.281Z,98554.03
2023-03-24T20:50:41.003Z,98538.72
2023-03-24T20:53:09.674Z,98560.94
2023-03-24T20:55:38.146Z,98552.22
2023-03-24T20:58:08.697Z,98555.50
2023-03-24T21:00:38.085Z,98547.78
2023-03-24T21:03:06.823Z,98568.81
2023-03-24T21:05:36.853Z,98552.50
2023-03-24T21:08:06.166Z,98545.88
2023-03-24T21:10:36.418Z,98563.09
2023-03-24T21:13:05.457Z,98566.03
2023-03-24T21:15:33.892Z,98564.38
2023-03-24T21:18:03.528Z,98567.69
2023-03-24T21:20:32.148Z,98575.41
2023-03-24T21:23:04.483Z,98570.78
2023-03-24T21:25:34.296Z,98599.03
2023-03-24T21:28:04.087Z,98598.03
2023-03-24T21:30:33.633Z,98612.50
2023-03-24T21:33:02.324Z,98622.47
2023-03-24T21:35:31.463Z,98621.13
2023-03-24T21:38:01.652Z,98635.75
2023-03-24T21:40:30.269Z,98638.00
2023-03-24T21:43:04.754Z,98633.75
2023-03-24T21:45:36.492Z,98643.22
2023-03-24T21:48:07.092Z,98635.19
2023-03-24T21:50:39.133Z,98658.31
2023-03-24T21:53:15.462Z,98667.47
2023-03-24T21:55:52.969Z,98663.03
2023-03-24T21:58:23.698Z,98659.72
2023-03-24T22:00:53.341Z,98679.94
2023-03-24T22:03:22.257Z,98683.66
2023-03-24T22:05:52.338Z,98684.03
2023-03-24T22:08:26.986Z,98694.88
2023-03-24T22:11:00.742Z,98708.97
2023-03-24T22:13:33.226Z,98705.53
2023-03-24T22:16:06.441Z,98694.03
2023-03-24T22:18:36.579Z,98717.22
2023-03-24T22:21:07.820Z,98735.41
2023-03-24T22:23:40.488Z,98737.06
2023-03-24T22:26:11.352Z,98736.38
2023-03-24T22:28:40.780Z,98747.78
2023-03-24T22:31:11.150Z,98738.81
2023-03-24T22:33:40.250Z,98747.53
2023-03-24T22:36:11.615Z,98750.50
2023-03-24T22:38:42.607Z,98761.97
2023-03-24T22:41:14.556Z,98771.22
2023-03-24T22:43:43.699Z,98759.59
2023-03-24T22:46:12.869Z,98790.16
2023-03-24T22:48:41.368Z,98808.38
2023-03-24T22:51:12.711Z,98794.97
2023-03-24T22:53:43.629Z,98797.31
2023-03-24T22:56:18.302Z,98802.13
2023-03-24T22:58:46.684Z,98809.47
2023-03-24T23:01:17.771Z,98814.03
2023-03-24T23:03:46.932Z,98821.63
2023-03-24T23:06:16.068Z,98820.81
2023-03-24T23:08:46.014Z,98836.41
2023-03-24T23:11:17.012Z,98832.97
2023-03-24T23:13:46.918Z,98841.00
2023-03-24T23:16:15.646Z,98850.53
2023-03-24T23:18:44.973Z,98847.47
2023-03-24T23:21:15.359Z,98857.97
2023-03-24T23:23:46.767Z,98861.44
2023-03-24T23:26:26.188Z,98863.38
2023-03-24T23:28:55.782Z,98873.59
2023-03-24T23:31:27.152Z,98883.44
2023-03-24T23:33:57.669Z,98893.78
2023-03-24T23:36:28.639Z,98893.66
2023-03-24T23:38:59.018Z,98881.19
2023-03-24T23:41:29.035Z,98912.88
2023-03-24T23:43:57.567Z,98909.44
2023-03-24T23:46:26.087Z,98905.81
2023-03-24T23:48:55.645Z,98911.09
2023-03-24T23:51:24.082Z,98908.03
2023-03-24T23:53:52.723Z,98901.25
2023-03-24T23:56:23.170Z,98923.41
2023-03-24T23:58:52.886Z,98932.53
